CheckWX is a tool to help pilots better visualize weather data.  It is not intended as a substitute for an official pre-flight weather briefing.

17:54:18 UTC

KLRF METAR
Little Rock AFB Airport
Jacksonville, Arkansas, USA
Current

58 mins ago

KLRF 171656Z AUTO 13004KT 10SM CLR M A3012 RMK AO2 SLPNO ALSTG ESTMD $
Observed
Oct-17 @ 16:56 UTC
Wind
  • 130° at 4 KTS
Visibility
10 SM
Flight Rules
VFR
Cloud Levels
  • Clear skies
Altimeter
30.12" Hg
Pressure
1020.02 hPa
Previous

2 hours ago

KLRF 171556Z 11006KT 10SM CLR 13/07 A3014 RMK AO2A SLPNO ALSTG ESTMD $
Observed
Oct-17 @ 15:56 UTC
Wind
  • 110° at 6 KTS
Visibility
10 SM
Flight Rules
VFR
Cloud Levels
  • Clear skies
Temperature
13°C / 55°F
Dewpoint
C / 45°F
Humidity
67%
Altimeter
30.14" Hg
Pressure
1020.62 hPa
Previous

3 hours ago

KLRF 171456Z 11006KT 7SM CLR 11/07 A3015 RMK AO2A SLPNO ALSTG ESTMD 60000 53014 $
Observed
Oct-17 @ 14:56 UTC
Wind
  • 110° at 6 KTS
Visibility
7 SM
Flight Rules
VFR
Cloud Levels
  • Clear skies
Temperature
11°C / 52°F
Dewpoint
C / 45°F
Humidity
77%
Altimeter
30.15" Hg
Pressure
1021.02 hPa